createdAt,value
2023-03-29T00:00:46.854Z,993.68
2023-03-29T00:01:46.823Z,993.74
2023-03-29T00:02:46.854Z,993.75
2023-03-29T00:03:46.849Z,993.80
2023-03-29T00:04:47.820Z,993.75
2023-03-29T00:05:46.794Z,993.74
2023-03-29T00:06:46.769Z,993.72
2023-03-29T00:07:46.780Z,993.67
2023-03-29T00:08:46.726Z,993.68
2023-03-29T00:09:46.737Z,993.63
2023-03-29T00:10:46.750Z,993.71
2023-03-29T00:11:46.724Z,993.70
2023-03-29T00:12:46.693Z,993.70
2023-03-29T00:13:46.710Z,993.69
2023-03-29T00:14:46.733Z,993.61
2023-03-29T00:15:46.686Z,993.62
2023-03-29T00:16:46.868Z,993.61
2023-03-29T00:17:46.705Z,993.58
2023-03-29T00:18:46.654Z,993.49
2023-03-29T00:19:46.652Z,993.50
2023-03-29T00:20:46.609Z,993.55
2023-03-29T00:21:46.602Z,993.48
2023-03-29T00:22:46.657Z,993.49
2023-03-29T00:23:46.566Z,993.47
2023-03-29T00:24:46.589Z,993.49
2023-03-29T00:25:46.575Z,993.39
2023-03-29T00:26:46.582Z,993.40
2023-03-29T00:27:46.546Z,993.37
2023-03-29T00:28:46.554Z,993.34
2023-03-29T00:29:46.602Z,993.32
2023-03-29T00:30:46.500Z,993.28
2023-03-29T00:31:46.546Z,993.23
2023-03-29T00:32:46.506Z,993.21
2023-03-29T00:33:46.485Z,993.24
2023-03-29T00:34:46.479Z,993.24
2023-03-29T00:35:46.515Z,993.21
2023-03-29T00:36:46.455Z,993.25
2023-03-29T00:37:46.439Z,993.17
2023-03-29T00:38:46.443Z,993.21
2023-03-29T00:39:46.405Z,993.14
2023-03-29T00:40:46.424Z,993.18
2023-03-29T00:41:46.408Z,993.24
2023-03-29T00:42:46.387Z,993.16
2023-03-29T00:43:46.367Z,993.17
2023-03-29T00:44:46.381Z,993.17
2023-03-29T00:45:46.353Z,993.11
2023-03-29T00:46:46.367Z,993.16
2023-03-29T00:47:46.407Z,993.13
2023-03-29T00:48:46.355Z,993.18
2023-03-29T00:49:46.318Z,993.12
2023-03-29T00:50:46.300Z,993.12
2023-03-29T00:51:46.311Z,993.10
2023-03-29T00:52:46.330Z,993.13
2023-03-29T00:53:46.266Z,993.09
2023-03-29T00:54:46.245Z,993.10
2023-03-29T00:55:46.268Z,993.12
2023-03-29T00:56:46.240Z,993.08
2023-03-29T00:57:46.228Z,993.13
2023-03-29T00:58:46.236Z,993.03
2023-03-29T00:59:46.220Z,993.03
2023-03-29T01:00:46.192Z,992.99
2023-03-29T01:01:46.235Z,993.04
2023-03-29T01:02:46.226Z,992.98
2023-03-29T01:03:46.388Z,992.92
2023-03-29T01:04:46.196Z,992.91
2023-03-29T01:05:46.161Z,992.87
2023-03-29T01:06:46.182Z,992.84
2023-03-29T01:07:46.145Z,992.85
2023-03-29T01:08:46.133Z,992.88
2023-03-29T01:09:46.128Z,992.86
2023-03-29T01:10:46.087Z,992.87
2023-03-29T01:11:46.109Z,992.82
2023-03-29T01:12:46.056Z,992.84
2023-03-29T01:13:46.065Z,992.83
2023-03-29T01:14:47.076Z,992.86
2023-03-29T01:15:46.055Z,992.81
2023-03-29T01:16:46.105Z,992.81
2023-03-29T01:17:46.051Z,992.92
2023-03-29T01:18:46.043Z,992.79
2023-03-29T01:19:46.010Z,992.80
2023-03-29T01:20:45.995Z,992.85
2023-03-29T01:21:45.992Z,992.81
2023-03-29T01:22:46.003Z,992.82
2023-03-29T01:23:45.991Z,992.80
2023-03-29T01:24:45.958Z,992.75
2023-03-29T01:25:45.952Z,992.74
2023-03-29T01:26:45.970Z,992.65
2023-03-29T01:27:45.919Z,992.67
2023-03-29T01:28:45.938Z,992.67
2023-03-29T01:29:45.906Z,992.62
2023-03-29T01:30:45.884Z,992.57
2023-03-29T01:31:46.001Z,992.63
2023-03-29T01:32:45.936Z,992.54
2023-03-29T01:33:45.885Z,992.57
2023-03-29T01:34:45.834Z,992.60
2023-03-29T01:35:45.895Z,992.51
2023-03-29T01:36:45.809Z,992.53
2023-03-29T01:37:45.818Z,992.54
2023-03-29T01:38:45.836Z,992.58
2023-03-29T01:39:45.811Z,992.50
2023-03-29T01:40:45.789Z,992.51
2023-03-29T01:41:45.771Z,992.43
2023-03-29T01:42:45.774Z,992.47
2023-03-29T01:43:46.766Z,992.43
2023-03-29T01:44:45.776Z,992.40
2023-03-29T01:45:45.754Z,992.41
2023-03-29T01:46:45.735Z,992.40
2023-03-29T01:47:45.746Z,992.39
2023-03-29T01:48:45.716Z,992.35
2023-03-29T01:49:45.692Z,992.36
2023-03-29T01:50:45.685Z,992.32
2023-03-29T01:51:45.676Z,992.41
2023-03-29T01:52:45.674Z,992.40
2023-03-29T01:53:45.649Z,992.43
2023-03-29T01:54:45.624Z,992.37
2023-03-29T01:55:45.653Z,992.35
2023-03-29T01:56:45.661Z,992.38
2023-03-29T01:57:45.607Z,992.32
2023-03-29T01:58:45.584Z,992.39
2023-03-29T01:59:45.601Z,992.41
2023-03-29T02:00:45.580Z,992.39
2023-03-29T02:01:45.603Z,992.34
2023-03-29T02:02:45.714Z,992.37
2023-03-29T02:03:45.642Z,992.25
2023-03-29T02:04:45.519Z,992.35
2023-03-29T02:05:45.518Z,992.34
2023-03-29T02:06:45.534Z,992.27
2023-03-29T02:07:45.498Z,992.26
2023-03-29T02:08:45.553Z,992.22
2023-03-29T02:09:45.489Z,992.24
2023-03-29T02:10:45.472Z,992.19
2023-03-29T02:11:45.460Z,992.21
2023-03-29T02:12:45.481Z,992.26
2023-03-29T02:13:45.450Z,992.25
2023-03-29T02:14:45.412Z,992.17
2023-03-29T02:15:45.483Z,992.22
2023-03-29T02:16:45.423Z,992.16
2023-03-29T02:17:45.429Z,992.13
2023-03-29T02:18:45.405Z,992.18
2023-03-29T02:19:45.387Z,992.16
2023-03-29T02:20:45.355Z,992.13
2023-03-29T02:21:45.356Z,992.10
2023-03-29T02:22:45.385Z,992.06
2023-03-29T02:23:45.371Z,992.02
2023-03-29T02:24:45.320Z,992.00
2023-03-29T02:25:45.321Z,992.11
2023-03-29T02:26:45.327Z,992.02
2023-03-29T02:27:45.301Z,992.04
2023-03-29T02:28:45.276Z,992.05
2023-03-29T02:29:45.281Z,991.97
2023-03-29T02:30:45.290Z,992.00
2023-03-29T02:31:45.383Z,992.00
2023-03-29T02:32:45.286Z,991.97
2023-03-29T02:33:45.281Z,991.94
2023-03-29T02:34:45.232Z,991.92
2023-03-29T02:35:45.230Z,991.89
2023-03-29T02:36:45.213Z,991.87
2023-03-29T02:37:45.220Z,991.82
2023-03-29T02:38:45.182Z,991.88
2023-03-29T02:39:45.184Z,991.88
2023-03-29T02:40:45.154Z,991.83
2023-03-29T02:41:45.157Z,991.82
2023-03-29T02:42:45.153Z,991.88
2023-03-29T02:43:45.138Z,991.85
2023-03-29T02:44:45.103Z,991.79
2023-03-29T02:45:45.101Z,991.82
2023-03-29T02:46:45.149Z,991.81
2023-03-29T02:47:45.150Z,991.83
2023-03-29T02:48:45.108Z,991.72
2023-03-29T02:49:45.091Z,991.69
2023-03-29T02:50:45.041Z,991.75
2023-03-29T02:51:45.058Z,991.70
2023-03-29T02:52:45.062Z,991.68
2023-03-29T02:53:45.038Z,991.64
2023-03-29T02:54:45.001Z,991.70
2023-03-29T02:55:45.007Z,991.65
2023-03-29T02:56:45.085Z,991.55
2023-03-29T02:57:44.994Z,991.49
2023-03-29T02:58:45.019Z,991.51
2023-03-29T02:59:44.986Z,991.55
2023-03-29T03:00:44.937Z,991.58
2023-03-29T03:01:45.080Z,991.55
2023-03-29T03:02:45.033Z,991.56
2023-03-29T03:03:45.044Z,991.58
2023-03-29T03:04:44.973Z,991.54
2023-03-29T03:05:44.908Z,991.56
2023-03-29T03:06:44.893Z,991.50
2023-03-29T03:07:44.890Z,991.55
2023-03-29T03:08:44.903Z,991.55
2023-03-29T03:09:45.888Z,991.58
2023-03-29T03:10:44.844Z,991.55
2023-03-29T03:11:44.862Z,991.55
2023-03-29T03:12:44.829Z,991.58
2023-03-29T03:13:44.824Z,991.54
2023-03-29T03:14:44.825Z,991.55
2023-03-29T03:15:44.809Z,991.50
2023-03-29T03:16:44.906Z,991.48
2023-03-29T03:18:16.780Z,991.46
2023-03-29T03:18:44.777Z,991.46
2023-03-29T03:19:44.799Z,991.50
2023-03-29T03:20:44.752Z,991.46
2023-03-29T03:21:44.785Z,991.46
2023-03-29T03:22:44.737Z,991.44
2023-03-29T03:23:44.747Z,991.47
2023-03-29T03:24:44.731Z,991.44
2023-03-29T03:25:44.714Z,991.45
2023-03-29T03:26:44.719Z,991.43
2023-03-29T03:27:44.688Z,991.48
2023-03-29T03:28:44.682Z,991.49
2023-03-29T03:29:44.648Z,991.42
2023-03-29T03:30:44.657Z,991.40
2023-03-29T03:31:44.794Z,991.40
2023-03-29T03:32:44.754Z,991.38
2023-03-29T03:33:44.651Z,991.41
2023-03-29T03:34:44.616Z,991.35
2023-03-29T03:35:44.618Z,991.30
2023-03-29T03:36:44.577Z,991.34
2023-03-29T03:37:44.572Z,991.36
2023-03-29T03:38:44.594Z,991.34
2023-03-29T03:39:44.545Z,991.36
2023-03-29T03:40:44.557Z,991.40
2023-03-29T03:41:44.530Z,991.34
2023-03-29T03:42:44.539Z,991.35
2023-03-29T03:43:44.506Z,991.30
2023-03-29T03:44:44.519Z,991.33
2023-03-29T03:45:44.536Z,991.35
2023-03-29T03:46:44.515Z,991.27
2023-03-29T03:47:44.524Z,991.29
2023-03-29T03:48:44.455Z,991.36
2023-03-29T03:49:44.449Z,991.34
2023-03-29T03:50:44.433Z,991.35
2023-03-29T03:51:44.424Z,991.38
2023-03-29T03:52:44.457Z,991.40
2023-03-29T03:53:44.429Z,991.38
2023-03-29T03:54:44.412Z,991.42
2023-03-29T03:55:44.379Z,991.38
2023-03-29T03:56:44.393Z,991.41
2023-03-29T03:57:44.363Z,991.35
2023-03-29T03:58:44.379Z,991.34
2023-03-29T03:59:44.335Z,991.35
2023-03-29T04:00:44.322Z,991.35
2023-03-29T04:01:44.356Z,991.43
2023-03-29T04:02:44.431Z,991.33
2023-03-29T04:03:44.338Z,991.29
2023-03-29T04:04:44.283Z,991.29
2023-03-29T04:05:44.300Z,991.30
2023-03-29T04:06:44.283Z,991.25
2023-03-29T04:07:44.289Z,991.28
2023-03-29T04:08:44.258Z,991.34
2023-03-29T04:09:44.230Z,991.34
2023-03-29T04:10:44.233Z,991.38
2023-03-29T04:11:44.300Z,991.34
2023-03-29T04:12:44.226Z,991.32
2023-03-29T04:13:44.188Z,991.37
2023-03-29T04:14:44.184Z,991.38
2023-03-29T04:15:44.205Z,991.28
2023-03-29T04:16:44.181Z,991.33
2023-03-29T04:17:44.218Z,991.33
2023-03-29T04:18:44.291Z,991.31
2023-03-29T04:19:44.158Z,991.27
2023-03-29T04:20:44.129Z,991.28
2023-03-29T04:21:44.134Z,991.27
2023-03-29T04:22:44.124Z,991.22
2023-03-29T04:23:44.116Z,991.18
2023-03-29T04:24:44.110Z,991.19
2023-03-29T04:25:44.074Z,991.16
2023-03-29T04:26:44.053Z,991.17
2023-03-29T04:27:44.054Z,991.13
2023-03-29T04:28:44.040Z,991.16
2023-03-29T04:29:44.034Z,991.15
2023-03-29T04:30:44.027Z,991.12
2023-03-29T04:31:44.053Z,991.05
2023-03-29T04:32:44.094Z,991.06
2023-03-29T04:33:44.010Z,991.03
2023-03-29T04:34:43.993Z,991.00
2023-03-29T04:35:44.066Z,990.99
2023-03-29T04:36:44.050Z,991.04
2023-03-29T04:37:43.998Z,990.99
2023-03-29T04:38:47.378Z,991.01
2023-03-29T04:39:44.974Z,990.92
2023-03-29T04:40:44.114Z,990.88
2023-03-29T04:41:43.902Z,990.98
2023-03-29T04:42:43.918Z,990.97
2023-03-29T04:43:43.901Z,990.95
2023-03-29T04:44:43.984Z,990.94
2023-03-29T04:45:43.882Z,990.90
2023-03-29T04:46:43.890Z,990.82
2023-03-29T04:47:43.906Z,990.85
2023-03-29T04:48:43.862Z,990.86
2023-03-29T04:49:43.859Z,990.87
2023-03-29T04:50:43.823Z,990.86
2023-03-29T04:51:43.830Z,990.84
2023-03-29T04:52:43.796Z,990.81
2023-03-29T04:53:43.800Z,990.86
2023-03-29T04:54:43.793Z,990.87
2023-03-29T04:55:43.768Z,990.84
2023-03-29T04:56:43.807Z,990.83
2023-03-29T04:57:43.758Z,990.78
2023-03-29T04:58:43.757Z,990.85
2023-03-29T04:59:43.711Z,990.82
2023-03-29T05:00:44.728Z,990.88
2023-03-29T05:01:43.787Z,990.89
2023-03-29T05:02:43.721Z,990.95
2023-03-29T05:03:43.718Z,990.90
2023-03-29T05:04:43.718Z,990.87
2023-03-29T05:05:43.675Z,990.85
2023-03-29T05:06:43.684Z,990.80
2023-03-29T05:07:43.637Z,990.80
2023-03-29T05:08:43.630Z,990.84
2023-03-29T05:09:43.625Z,990.81
2023-03-29T05:10:43.654Z,990.80
2023-03-29T05:11:43.646Z,990.90
2023-03-29T05:12:43.599Z,990.87
2023-03-29T05:13:43.595Z,990.82
2023-03-29T05:14:43.604Z,990.87
2023-03-29T05:15:43.566Z,990.81
2023-03-29T05:16:43.575Z,990.82
2023-03-29T05:17:43.566Z,990.83
2023-03-29T05:18:43.512Z,990.84
2023-03-29T05:19:43.539Z,990.78
2023-03-29T05:20:43.499Z,990.83
2023-03-29T05:21:45.397Z,990.75
2023-03-29T05:22:44.516Z,990.71
2023-03-29T05:23:43.481Z,990.66
2023-03-29T05:24:43.461Z,990.58
2023-03-29T05:25:43.459Z,990.64
2023-03-29T05:26:43.446Z,990.64
2023-03-29T05:27:43.427Z,990.63
2023-03-29T05:28:43.417Z,990.60
2023-03-29T05:29:43.410Z,990.71
2023-03-29T05:30:43.435Z,990.58
2023-03-29T05:31:43.403Z,990.61
2023-03-29T05:32:43.406Z,990.61
2023-03-29T05:33:43.393Z,990.63
2023-03-29T05:34:43.429Z,990.62
2023-03-29T05:35:43.392Z,990.65
2023-03-29T05:36:43.357Z,990.59
2023-03-29T05:37:43.336Z,990.55
2023-03-29T05:38:43.307Z,990.57
2023-03-29T05:39:43.317Z,990.57
2023-03-29T05:40:43.314Z,990.57
2023-03-29T05:41:43.287Z,990.52
2023-03-29T05:42:43.277Z,990.53
2023-03-29T05:43:43.249Z,990.50
2023-03-29T05:44:43.253Z,990.47
2023-03-29T05:45:43.326Z,990.45
2023-03-29T05:46:43.226Z,990.49
2023-03-29T05:47:43.293Z,990.41
2023-03-29T05:48:43.223Z,990.47
2023-03-29T05:49:43.205Z,990.40
2023-03-29T05:50:45.126Z,990.41
2023-03-29T05:51:44.200Z,990.40
2023-03-29T05:52:43.202Z,990.36
2023-03-29T05:53:43.183Z,990.38
2023-03-29T05:54:43.164Z,990.32
2023-03-29T05:55:43.141Z,990.30
2023-03-29T05:56:43.158Z,990.37
2023-03-29T05:57:43.115Z,990.39
2023-03-29T05:58:43.099Z,990.46
2023-03-29T05:59:43.090Z,990.49
2023-03-29T06:00:43.082Z,990.44
2023-03-29T06:01:43.082Z,990.49
2023-03-29T06:02:43.143Z,990.43
2023-03-29T06:03:43.298Z,990.45
2023-03-29T06:04:43.154Z,990.47
2023-03-29T06:05:43.028Z,990.48
2023-03-29T06:06:43.016Z,990.51
2023-03-29T06:07:43.015Z,990.48
2023-03-29T06:08:43.005Z,990.45
2023-03-29T06:09:43.019Z,990.43
2023-03-29T06:10:42.999Z,990.43
2023-03-29T06:11:42.989Z,990.35
2023-03-29T06:12:42.964Z,990.35
2023-03-29T06:13:42.961Z,990.38
2023-03-29T06:14:42.960Z,990.38
2023-03-29T06:15:42.930Z,990.43
2023-03-29T06:16:43.048Z,990.40
2023-03-29T06:17:42.954Z,990.38
2023-03-29T06:18:42.889Z,990.43
2023-03-29T06:19:42.880Z,990.49
2023-03-29T06:20:42.880Z,990.47
2023-03-29T06:21:42.851Z,990.48
2023-03-29T06:22:42.862Z,990.57
2023-03-29T06:23:42.876Z,990.47
2023-03-29T06:24:42.848Z,990.48
2023-03-29T06:25:42.824Z,990.47
2023-03-29T06:26:42.813Z,990.49
2023-03-29T06:27:42.808Z,990.46
2023-03-29T06:28:42.787Z,990.40
2023-03-29T06:29:42.772Z,990.37
2023-03-29T06:30:42.757Z,990.38
2023-03-29T06:31:42.792Z,990.36
2023-03-29T06:32:42.796Z,990.39
2023-03-29T06:33:42.763Z,990.36
2023-03-29T06:34:42.759Z,990.42
2023-03-29T06:35:42.724Z,990.35
2023-03-29T06:36:42.715Z,990.41
2023-03-29T06:37:42.693Z,990.41
2023-03-29T06:38:42.709Z,990.38
2023-03-29T06:39:42.687Z,990.32
2023-03-29T06:40:42.676Z,990.35
2023-03-29T06:41:42.653Z,990.39
2023-03-29T06:42:42.647Z,990.40
2023-03-29T06:43:42.646Z,990.43
2023-03-29T06:44:42.622Z,990.48
2023-03-29T06:45:42.640Z,990.49
2023-03-29T06:46:42.630Z,990.40
2023-03-29T06:47:42.647Z,990.44
2023-03-29T06:48:42.605Z,990.48
2023-03-29T06:49:42.577Z,990.51
2023-03-29T06:50:42.600Z,990.43
2023-03-29T06:51:42.563Z,990.42
2023-03-29T06:52:42.528Z,990.43
2023-03-29T06:53:42.526Z,990.42
2023-03-29T06:54:42.537Z,990.47
2023-03-29T06:55:42.507Z,990.54
2023-03-29T06:56:42.552Z,990.45
2023-03-29T06:57:42.501Z,990.47
2023-03-29T06:58:42.500Z,990.49
2023-03-29T06:59:42.484Z,990.49
2023-03-29T07:00:42.472Z,990.56
2023-03-29T07:01:42.463Z,990.54
2023-03-29T07:02:42.503Z,990.46
2023-03-29T07:03:44.180Z,990.44
2023-03-29T07:04:42.493Z,990.41
2023-03-29T07:05:42.410Z,990.47
2023-03-29T07:06:42.396Z,990.42
2023-03-29T07:07:42.393Z,990.43
2023-03-29T07:08:42.374Z,990.46
2023-03-29T07:09:42.387Z,990.43
2023-03-29T07:10:42.352Z,990.49
2023-03-29T07:11:42.370Z,990.49
2023-03-29T07:12:42.344Z,990.47
2023-03-29T07:13:42.416Z,990.44
2023-03-29T07:14:44.089Z,990.44
2023-03-29T07:15:42.298Z,990.45
2023-03-29T07:16:42.365Z,990.48
2023-03-29T07:17:42.314Z,990.45
2023-03-29T07:18:42.265Z,990.43
2023-03-29T07:19:42.264Z,990.43
2023-03-29T07:20:42.249Z,990.44
2023-03-29T07:21:42.232Z,990.47
2023-03-29T07:22:42.224Z,990.50
2023-03-29T07:23:42.225Z,990.43
2023-03-29T07:24:42.185Z,990.43
2023-03-29T07:25:42.182Z,990.41
2023-03-29T07:26:52.343Z,990.38
2023-03-29T07:27:44.163Z,990.42
2023-03-29T07:28:42.170Z,990.50
2023-03-29T07:29:42.145Z,990.35
2023-03-29T07:30:42.152Z,990.48
2023-03-29T07:31:42.124Z,990.45
2023-03-29T07:32:42.264Z,990.40
2023-03-29T07:33:42.233Z,990.40
2023-03-29T07:34:42.087Z,990.44
2023-03-29T07:35:42.122Z,990.37
2023-03-29T07:36:42.062Z,990.39
2023-03-29T07:37:42.048Z,990.28
2023-03-29T07:38:42.069Z,990.30
2023-03-29T07:39:42.048Z,990.36
2023-03-29T07:40:42.020Z,990.27
2023-03-29T07:41:42.117Z,990.31
2023-03-29T07:42:42.033Z,990.32
2023-03-29T07:43:42.019Z,990.30
2023-03-29T07:44:41.998Z,990.28
2023-03-29T07:45:42.008Z,990.28
2023-03-29T07:46:41.972Z,990.35
2023-03-29T07:47:41.964Z,990.38
2023-03-29T07:48:41.932Z,990.41
2023-03-29T07:49:41.917Z,990.40
2023-03-29T07:50:41.918Z,990.43
2023-03-29T07:51:41.905Z,990.42
2023-03-29T07:52:41.912Z,990.50
2023-03-29T07:53:41.905Z,990.40
2023-03-29T07:54:41.909Z,990.43
2023-03-29T07:55:44.660Z,990.38
2023-03-29T07:56:41.901Z,990.48
2023-03-29T07:57:41.838Z,990.33
2023-03-29T07:58:41.842Z,990.39
2023-03-29T07:59:41.822Z,990.35
2023-03-29T08:00:41.811Z,990.39
2023-03-29T08:01:41.802Z,990.38
2023-03-29T08:02:41.829Z,990.44
2023-03-29T08:03:41.779Z,990.37
2023-03-29T08:04:41.822Z,990.36
2023-03-29T08:05:42.267Z,990.37
2023-03-29T08:06:41.741Z,990.39
2023-03-29T08:07:41.722Z,990.41
2023-03-29T08:08:41.723Z,990.36
2023-03-29T08:09:41.704Z,990.38
2023-03-29T08:10:41.716Z,990.38
2023-03-29T08:11:41.709Z,990.35
2023-03-29T08:12:41.666Z,990.36
2023-03-29T08:13:41.670Z,990.32
2023-03-29T08:14:41.656Z,990.30
2023-03-29T08:15:41.655Z,990.38
2023-03-29T08:16:41.686Z,990.36
2023-03-29T08:17:41.652Z,990.36
2023-03-29T08:18:41.613Z,990.36
2023-03-29T08:19:41.614Z,990.35
2023-03-29T08:20:42.625Z,990.36
2023-03-29T08:21:41.568Z,990.38
2023-03-29T08:22:41.567Z,990.39
2023-03-29T08:23:41.549Z,990.35
2023-03-29T08:24:41.560Z,990.42
2023-03-29T08:25:41.517Z,990.37
2023-03-29T08:26:41.533Z,990.41
2023-03-29T08:27:41.552Z,990.36
2023-03-29T08:28:41.501Z,990.34
2023-03-29T08:29:41.483Z,990.33
2023-03-29T08:30:41.531Z,990.39
2023-03-29T08:31:41.508Z,990.47
2023-03-29T08:32:41.511Z,990.41
2023-03-29T08:33:41.465Z,990.43
2023-03-29T08:34:41.413Z,990.36
2023-03-29T08:35:41.464Z,990.40
2023-03-29T08:36:41.414Z,990.38
2023-03-29T08:37:41.434Z,990.36
2023-03-29T08:38:41.385Z,990.33
2023-03-29T08:39:41.398Z,990.28
2023-03-29T08:40:41.378Z,990.27
2023-03-29T08:41:41.333Z,990.28
2023-03-29T08:42:41.344Z,990.29
2023-03-29T08:43:41.365Z,990.31
2023-03-29T08:44:41.333Z,990.20
2023-03-29T08:45:41.332Z,990.24
2023-03-29T08:46:41.382Z,990.22
2023-03-29T08:47:41.318Z,990.24
2023-03-29T08:48:41.274Z,990.32
2023-03-29T08:49:41.273Z,990.27
2023-03-29T08:50:41.260Z,990.24
2023-03-29T08:51:41.236Z,990.35
2023-03-29T08:52:41.246Z,990.30
2023-03-29T08:53:41.215Z,990.31
2023-03-29T08:54:41.217Z,990.25
2023-03-29T08:55:41.193Z,990.23
2023-03-29T08:56:41.187Z,990.24
2023-03-29T08:57:41.228Z,990.34
2023-03-29T08:58:41.151Z,990.32
2023-03-29T08:59:41.170Z,990.31
2023-03-29T09:00:41.129Z,990.33
2023-03-29T09:01:41.127Z,990.23
2023-03-29T09:02:41.198Z,990.22
2023-03-29T09:03:41.235Z,990.26
2023-03-29T09:04:41.080Z,990.27
2023-03-29T09:05:41.128Z,990.21
2023-03-29T09:06:41.075Z,990.27
2023-03-29T09:07:41.070Z,990.18
2023-03-29T09:08:41.075Z,990.12
2023-03-29T09:09:41.032Z,990.16
2023-03-29T09:10:41.079Z,990.18
2023-03-29T09:11:41.042Z,990.15
2023-03-29T09:12:41.000Z,990.15
2023-03-29T09:13:41.000Z,990.02
2023-03-29T09:14:40.980Z,990.03
2023-03-29T09:15:41.022Z,990.00
2023-03-29T09:16:40.977Z,989.96
2023-03-29T09:17:40.966Z,989.83
2023-03-29T09:19:13.150Z,989.83
2023-03-29T09:19:40.892Z,989.91
2023-03-29T09:20:40.918Z,989.89
2023-03-29T09:21:40.925Z,989.84
2023-03-29T09:22:40.889Z,989.97
2023-03-29T09:23:40.859Z,989.96
2023-03-29T09:24:40.895Z,990.00
2023-03-29T09:25:50.716Z,989.91
2023-03-29T09:26:42.826Z,990.00
2023-03-29T09:27:40.857Z,989.98
2023-03-29T09:28:40.847Z,989.99
2023-03-29T09:29:40.794Z,990.03
2023-03-29T09:30:40.783Z,990.03
2023-03-29T09:31:40.822Z,990.04
2023-03-29T09:32:40.784Z,990.06
2023-03-29T09:33:40.748Z,990.14
2023-03-29T09:34:40.756Z,990.09
2023-03-29T09:35:40.769Z,990.04
2023-03-29T09:36:40.716Z,990.04
2023-03-29T09:37:40.739Z,990.07
2023-03-29T09:38:40.702Z,990.07
2023-03-29T09:39:40.665Z,990.07
2023-03-29T09:40:40.684Z,990.05
2023-03-29T09:41:40.683Z,989.97
2023-03-29T09:42:40.633Z,989.92
2023-03-29T09:43:40.659Z,989.90
2023-03-29T09:44:40.646Z,989.85
2023-03-29T09:45:40.649Z,989.92
2023-03-29T09:46:40.592Z,989.89
2023-03-29T09:47:40.667Z,989.91
2023-03-29T09:48:41.583Z,989.94
2023-03-29T09:49:40.593Z,989.89
2023-03-29T09:50:40.563Z,989.87
2023-03-29T09:51:40.567Z,989.85
2023-03-29T09:52:40.543Z,989.77
2023-03-29T09:53:40.592Z,989.81
2023-03-29T09:54:40.505Z,989.76
2023-03-29T09:55:40.514Z,989.79
2023-03-29T09:56:40.594Z,989.82
2023-03-29T09:57:40.456Z,989.78
2023-03-29T09:58:40.496Z,989.73
2023-03-29T09:59:40.445Z,989.71
2023-03-29T10:00:40.431Z,989.69
2023-03-29T10:01:40.491Z,989.60
2023-03-29T10:02:40.485Z,989.59
2023-03-29T10:03:40.396Z,989.57
2023-03-29T10:04:40.456Z,989.52
2023-03-29T10:05:40.417Z,989.48
2023-03-29T10:06:40.364Z,989.54
2023-03-29T10:07:40.395Z,989.49
2023-03-29T10:08:40.365Z,989.46
2023-03-29T10:09:40.340Z,989.54
2023-03-29T10:10:40.340Z,989.61
2023-03-29T10:11:40.349Z,989.61
2023-03-29T10:12:40.324Z,989.62
2023-03-29T10:13:40.279Z,989.67
2023-03-29T10:14:40.313Z,989.54
2023-03-29T10:15:40.301Z,989.59
2023-03-29T10:16:40.429Z,989.69
2023-03-29T10:17:40.337Z,989.58
2023-03-29T10:18:40.261Z,989.59
2023-03-29T10:19:40.218Z,989.53
2023-03-29T10:20:40.231Z,989.58
2023-03-29T10:21:40.232Z,989.54
2023-03-29T10:22:40.197Z,989.56
2023-03-29T10:23:40.241Z,989.57
2023-03-29T10:24:40.185Z,989.56
2023-03-29T10:25:42.297Z,989.46
2023-03-29T10:26:41.156Z,989.52
2023-03-29T10:27:40.136Z,989.53
2023-03-29T10:28:40.122Z,989.59
2023-03-29T10:29:40.136Z,989.53
2023-03-29T10:30:40.164Z,989.58
2023-03-29T10:31:40.170Z,989.56
2023-03-29T10:32:40.154Z,989.44
2023-03-29T10:33:40.066Z,989.45
2023-03-29T10:34:40.057Z,989.46
2023-03-29T10:35:40.097Z,989.50
2023-03-29T10:36:40.061Z,989.54
2023-03-29T10:37:40.026Z,989.50
2023-03-29T10:38:40.036Z,989.49
2023-03-29T10:39:40.004Z,989.52
2023-03-29T10:40:39.998Z,989.53
2023-03-29T10:41:40.020Z,989.57
2023-03-29T10:42:40.042Z,989.56
2023-03-29T10:43:39.951Z,989.55
2023-03-29T10:44:39.963Z,989.53
2023-03-29T10:45:39.953Z,989.49
2023-03-29T10:46:40.067Z,989.48
2023-03-29T10:47:40.543Z,989.48
2023-03-29T10:48:39.930Z,989.47
2023-03-29T10:49:39.883Z,989.46
2023-03-29T10:50:39.883Z,989.44
2023-03-29T10:51:39.890Z,989.37
2023-03-29T10:52:39.870Z,989.38
2023-03-29T10:53:39.867Z,989.41
2023-03-29T10:54:39.892Z,989.43
2023-03-29T10:55:39.843Z,989.37
2023-03-29T10:56:39.883Z,989.30
2023-03-29T10:57:39.807Z,989.34
2023-03-29T10:58:39.799Z,989.33
2023-03-29T10:59:39.804Z,989.36
2023-03-29T11:00:39.771Z,989.37
2023-03-29T11:01:39.818Z,989.37
2023-03-29T11:02:39.904Z,989.24
2023-03-29T11:03:39.780Z,989.32
2023-03-29T11:04:39.731Z,989.33
2023-03-29T11:05:39.744Z,989.31
2023-03-29T11:06:39.711Z,989.27
2023-03-29T11:07:39.678Z,989.30
2023-03-29T11:08:39.687Z,989.30
2023-03-29T11:09:39.744Z,989.29
2023-03-29T11:10:39.666Z,989.20
2023-03-29T11:11:39.685Z,989.21
2023-03-29T11:12:39.669Z,989.28
2023-03-29T11:13:39.627Z,989.17
2023-03-29T11:14:39.620Z,989.24
2023-03-29T11:15:39.663Z,989.27
2023-03-29T11:16:39.605Z,989.29
2023-03-29T11:17:40.603Z,989.29
2023-03-29T11:18:39.606Z,989.23
2023-03-29T11:19:39.559Z,989.30
2023-03-29T11:20:39.567Z,989.25
2023-03-29T11:21:39.577Z,989.31
2023-03-29T11:22:39.533Z,989.20
2023-03-29T11:23:39.533Z,989.22
2023-03-29T11:24:39.513Z,989.28
2023-03-29T11:25:39.514Z,989.30
2023-03-29T11:26:39.493Z,989.32
2023-03-29T11:27:39.505Z,989.33
2023-03-29T11:28:39.496Z,989.35
2023-03-29T11:29:39.469Z,989.37
2023-03-29T11:30:40.443Z,989.29
2023-03-29T11:31:39.501Z,989.25
2023-03-29T11:32:39.463Z,989.30
2023-03-29T11:33:39.414Z,989.30
2023-03-29T11:34:39.441Z,989.32
2023-03-29T11:35:39.440Z,989.23
2023-03-29T11:36:39.385Z,989.25
2023-03-29T11:37:39.398Z,989.16
2023-03-29T11:38:39.367Z,989.19
2023-03-29T11:39:39.339Z,989.16
2023-03-29T11:40:39.383Z,989.08
2023-03-29T11:41:39.377Z,989.01
2023-03-29T11:42:39.318Z,989.04
2023-03-29T11:43:39.336Z,989.00
2023-03-29T11:44:39.300Z,988.99
2023-03-29T11:45:39.281Z,989.02
2023-03-29T11:46:39.358Z,988.98
2023-03-29T11:47:39.316Z,989.01
2023-03-29T11:48:39.280Z,988.99
2023-03-29T11:49:39.232Z,988.95
2023-03-29T11:50:39.247Z,988.96
2023-03-29T11:51:39.238Z,988.90
2023-03-29T11:52:39.211Z,988.80
2023-03-29T11:53:39.214Z,988.82
2023-03-29T11:54:39.211Z,988.73
2023-03-29T11:55:39.170Z,988.77
2023-03-29T11:56:39.238Z,988.80
2023-03-29T11:57:39.172Z,988.81
2023-03-29T11:58:39.348Z,988.79
2023-03-29T11:59:40.149Z,988.88
2023-03-29T12:00:39.177Z,988.95
2023-03-29T12:01:39.173Z,988.76
2023-03-29T12:02:39.227Z,988.74
2023-03-29T12:03:39.192Z,988.83
2023-03-29T12:04:39.075Z,988.81
2023-03-29T12:05:39.088Z,988.74
2023-03-29T12:06:39.039Z,988.79
2023-03-29T12:07:39.088Z,988.79
2023-03-29T12:08:39.040Z,988.76
2023-03-29T12:09:39.021Z,988.77
2023-03-29T12:10:39.017Z,988.80
2023-03-29T12:11:39.039Z,988.67
2023-03-29T12:12:39.009Z,988.70
2023-03-29T12:13:39.005Z,988.74
2023-03-29T12:14:38.985Z,988.79
2023-03-29T12:15:38.948Z,988.73
2023-03-29T12:16:38.983Z,988.72
2023-03-29T12:17:38.978Z,988.68
2023-03-29T12:18:38.933Z,988.81
2023-03-29T12:19:42.714Z,988.74
2023-03-29T12:20:39.901Z,988.72
2023-03-29T12:21:38.906Z,988.69
2023-03-29T12:22:38.912Z,988.58
2023-03-29T12:23:38.877Z,988.56
2023-03-29T12:24:38.867Z,988.65
2023-03-29T12:25:38.845Z,988.56
2023-03-29T12:26:38.835Z,988.60
2023-03-29T12:27:38.850Z,988.61
2023-03-29T12:28:38.815Z,988.61